Aviation Digital Data Service (ADDS)

Output produced by METARs form (1403 UTC 23 January 2019)
found at http://www.aviationweather.gov/metar/data/
 
Forecast for: LLBG (BEN-GURION(CIV/M, IL)
Text: TAF LLBG 231113Z 2312/2412 35008KT CAVOK
Forecast period: 1200 to 1400 UTC 23 January 2019
Forecast type: FROM: standard forecast or significant change
Winds: from the N (350 degrees) at 9 MPH (8 knots; 4.1 m/s)
Visibility: 6 or more miles 10+ km)
Ceiling: unknown
Clouds: missing
Weather: NSW  (no significant weather)
Text: BECMG 2314/2317 12006KT
Forecast period: 1400 UTC 23 January 2019 to 0600 UTC 24 January 2019
Forecast type: BECOMING: Conditions expected to become as follows by 1700 UTC 23 January 2019
Winds: from the ESE (120 degrees) at 7 MPH (6 knots; 3.1 m/s)
Visibility: 6 or more miles 10+ km)
Ceiling: unknown
Clouds: missing
Weather: NSW  (no significant weather)
Text: BECMG 2406/2408 20009KT TX20/2312Z TN12/2404Z
Forecast period: 0600 to 1200 UTC 24 January 2019
Forecast type: BECOMING: Conditions expected to become as follows by 0800 UTC 24 January 2019
Winds: from the SSW (200 degrees) at 10 MPH (9 knots; 4.6 m/s)
Visibility: 6 or more miles 10+ km)
Ceiling: unknown
Clouds: missing
Weather: NSW  (no significant weather)